createdAt,value
2019-03-01T00:05:01.577Z,1.60
2019-03-01T00:10:29.605Z,1.60
2019-03-01T00:15:43.101Z,1.60
2019-03-01T00:21:15.168Z,1.50
2019-03-01T00:26:34.689Z,1.60
2019-03-01T00:31:57.322Z,1.50
2019-03-01T00:37:13.649Z,1.60
2019-03-01T00:42:39.237Z,1.60
2019-03-01T00:47:44.040Z,1.60
2019-03-01T00:52:48.824Z,1.60
2019-03-01T00:57:53.680Z,1.70
2019-03-01T01:02:58.401Z,1.60
2019-03-01T01:08:03.114Z,1.60
2019-03-01T01:13:07.888Z,1.50
2019-03-01T01:18:12.731Z,1.50
2019-03-01T01:23:17.577Z,1.40
2019-03-01T01:28:22.414Z,1.30
2019-03-01T01:33:27.259Z,1.20
2019-03-01T01:38:32.142Z,1.20
2019-03-01T01:43:36.988Z,1.30
2019-03-01T01:48:41.761Z,1.20
2019-03-01T01:53:46.608Z,1.30
2019-03-01T01:58:51.793Z,1.30
2019-03-01T02:03:56.568Z,1.20
2019-03-01T02:09:01.839Z,1.20
2019-03-01T02:14:07.429Z,1.10
2019-03-01T02:19:13.009Z,1.00
2019-03-01T02:24:18.479Z,1.00
2019-03-01T02:29:23.443Z,1.00
2019-03-01T02:34:28.480Z,0.90
2019-03-01T02:39:34.042Z,0.90
2019-03-01T02:44:38.932Z,0.80
2019-03-01T02:49:43.812Z,0.80
2019-03-01T02:54:48.684Z,0.80
2019-03-01T02:59:53.771Z,0.70
2019-03-01T03:04:58.498Z,0.70
2019-03-01T03:10:03.518Z,0.80
2019-03-01T03:15:11.897Z,1.00
2019-03-01T03:20:16.742Z,1.10
2019-03-01T03:25:21.575Z,1.10
2019-03-01T03:30:26.408Z,1.10
2019-03-01T03:35:31.265Z,1.10
2019-03-01T03:40:36.166Z,1.10
2019-03-01T03:45:41.030Z,1.10
2019-03-01T03:50:45.816Z,1.10
2019-03-01T03:55:50.621Z,1.10
2019-03-01T04:00:55.946Z,1.10
2019-03-01T04:06:00.813Z,1.10
2019-03-01T04:11:05.686Z,1.10
2019-03-01T04:16:10.553Z,1.10
2019-03-01T04:21:15.349Z,1.10
2019-03-01T04:26:20.293Z,1.00
2019-03-01T04:31:25.309Z,1.00
2019-03-01T04:36:30.160Z,1.00
2019-03-01T04:41:35.108Z,1.00
2019-03-01T04:46:39.894Z,1.00
2019-03-01T04:51:44.769Z,1.00
2019-03-01T04:56:49.622Z,1.00
2019-03-01T05:01:54.974Z,1.10
2019-03-01T05:06:59.897Z,1.10
2019-03-01T05:12:04.855Z,1.10
2019-03-01T05:17:09.713Z,1.10
2019-03-01T05:22:14.567Z,1.10
2019-03-01T05:27:19.360Z,1.10
2019-03-01T05:32:24.132Z,1.00
2019-03-01T05:37:28.913Z,1.00
2019-03-01T05:42:33.869Z,1.00
2019-03-01T05:47:38.656Z,1.00
2019-03-01T05:52:43.503Z,1.00
2019-03-01T05:58:23.266Z,1.00
2019-03-01T06:03:46.043Z,1.00
2019-03-01T06:09:25.630Z,1.20
2019-03-01T06:14:39.183Z,1.40
2019-03-01T06:19:55.909Z,1.50
2019-03-01T06:25:03.708Z,1.30
2019-03-01T06:30:11.898Z,1.60
2019-03-01T06:35:38.886Z,1.70
2019-03-01T06:41:15.124Z,1.80
2019-03-01T06:46:25.425Z,1.70
2019-03-01T06:51:30.774Z,1.70
2019-03-01T06:56:35.627Z,1.80
2019-03-01T07:01:41.661Z,1.70
2019-03-01T07:06:46.492Z,1.80
2019-03-01T07:11:51.187Z,1.80
2019-03-01T07:16:55.949Z,1.80
2019-03-01T07:22:00.772Z,1.90
2019-03-01T07:27:05.600Z,2.00
2019-03-01T07:32:10.877Z,2.10
2019-03-01T07:37:16.169Z,2.10
2019-03-01T07:42:21.665Z,2.20
2019-03-01T07:47:26.499Z,2.20
2019-03-01T07:52:31.254Z,2.20
2019-03-01T07:57:36.078Z,2.20
2019-03-01T08:02:40.901Z,2.10
2019-03-01T08:07:55.675Z,2.10
2019-03-01T08:12:52.904Z,2.00
2019-03-01T08:17:57.740Z,2.20
2019-03-01T08:23:02.564Z,2.30
2019-03-01T08:28:07.403Z,2.40
2019-03-01T08:33:12.190Z,2.40
2019-03-01T08:38:16.949Z,2.70
2019-03-01T08:43:21.735Z,2.70
2019-03-01T08:48:26.497Z,2.80
2019-03-01T08:53:31.324Z,2.70
2019-03-01T08:58:37.632Z,2.90
2019-03-01T09:03:48.233Z,3.20
2019-03-01T09:08:53.063Z,3.00
2019-03-01T09:13:57.892Z,2.90
2019-03-01T09:19:02.726Z,3.00
2019-03-01T09:24:07.553Z,3.10
2019-03-01T09:29:12.961Z,3.20
2019-03-01T09:34:18.734Z,3.30
2019-03-01T09:39:23.555Z,3.30
2019-03-01T09:44:28.512Z,3.30
2019-03-01T09:49:33.335Z,3.20
2019-03-01T09:54:38.793Z,3.40
2019-03-01T09:59:43.725Z,3.50
2019-03-01T10:04:48.577Z,3.60
2019-03-01T10:09:53.329Z,3.80
2019-03-01T10:14:58.156Z,4.20
2019-03-01T10:20:02.940Z,4.30
2019-03-01T10:25:10.709Z,4.00
2019-03-01T10:30:23.316Z,3.80
2019-03-01T10:35:28.147Z,4.00
2019-03-01T10:40:33.394Z,4.10
2019-03-01T10:45:38.401Z,4.40
2019-03-01T10:50:43.156Z,4.90
2019-03-01T10:55:48.018Z,5.50
2019-03-01T11:00:52.778Z,5.60
2019-03-01T11:05:57.976Z,5.40
2019-03-01T11:11:02.873Z,5.20
2019-03-01T11:16:07.633Z,5.10
2019-03-01T11:21:12.553Z,4.90
2019-03-01T11:26:17.452Z,4.90
2019-03-01T11:31:22.301Z,5.40
2019-03-01T11:36:27.128Z,5.80
2019-03-01T11:41:31.957Z,6.10
2019-03-01T11:46:36.825Z,6.10
2019-03-01T11:51:41.589Z,6.40
2019-03-01T11:56:46.986Z,6.60
2019-03-01T12:01:51.823Z,6.70
2019-03-01T12:06:56.586Z,6.50
2019-03-01T12:12:01.346Z,6.50
2019-03-01T12:17:06.276Z,6.60
2019-03-01T12:22:17.112Z,6.40
2019-03-01T12:27:17.497Z,6.40
2019-03-01T12:32:22.351Z,6.60
2019-03-01T12:37:27.186Z,6.80
2019-03-01T12:42:32.001Z,6.60
2019-03-01T12:47:36.931Z,6.50
2019-03-01T12:52:41.768Z,6.80
2019-03-01T12:57:47.097Z,7.10
2019-03-01T13:02:51.920Z,7.20
2019-03-01T13:07:56.954Z,6.90
2019-03-01T13:13:02.276Z,6.90
2019-03-01T13:18:10.289Z,7.00
2019-03-01T13:23:14.608Z,7.00
2019-03-01T13:28:19.477Z,6.60
2019-03-01T13:33:24.235Z,6.50
2019-03-01T13:38:30.381Z,6.50
2019-03-01T13:43:35.364Z,6.40
2019-03-01T13:48:40.193Z,6.30
2019-03-01T13:53:48.897Z,6.10
2019-03-01T13:58:51.466Z,5.90
2019-03-01T14:03:56.291Z,5.80
2019-03-01T14:09:01.121Z,5.80
2019-03-01T14:14:07.413Z,5.70
2019-03-01T14:19:13.477Z,5.60
2019-03-01T14:24:18.228Z,5.60
2019-03-01T14:29:23.077Z,5.60
2019-03-01T14:34:27.850Z,5.60
2019-03-01T14:39:32.669Z,5.50
2019-03-01T14:44:37.549Z,5.40
2019-03-01T14:49:43.324Z,5.40
2019-03-01T14:54:48.729Z,5.30
2019-03-01T14:59:56.957Z,5.20
2019-03-01T15:05:05.599Z,5.10
2019-03-01T15:10:11.097Z,5.10
2019-03-01T15:15:15.930Z,5.00
2019-03-01T15:20:24.225Z,5.10
2019-03-01T15:25:28.229Z,5.00
2019-03-01T15:30:33.044Z,4.80
2019-03-01T15:35:39.760Z,4.70
2019-03-01T15:40:44.313Z,4.70
2019-03-01T15:45:49.473Z,4.50
2019-03-01T15:50:54.309Z,4.50
2019-03-01T15:56:02.099Z,4.40
2019-03-01T16:01:11.110Z,4.30
2019-03-01T16:06:19.167Z,4.30
2019-03-01T16:11:21.488Z,4.20
2019-03-01T16:16:26.244Z,3.90
2019-03-01T16:21:31.089Z,3.70
2019-03-01T16:26:36.411Z,3.50
2019-03-01T16:31:42.335Z,3.40
2019-03-01T16:36:47.971Z,3.30
2019-03-01T16:41:53.284Z,3.20
2019-03-01T16:46:58.125Z,3.10
2019-03-01T16:52:02.944Z,2.90
2019-03-01T16:57:07.718Z,2.80
2019-03-01T17:02:12.600Z,2.60
2019-03-01T17:07:17.458Z,2.40
2019-03-01T17:12:22.539Z,2.30
2019-03-01T17:17:27.525Z,2.20
2019-03-01T17:22:32.866Z,2.00
2019-03-01T17:27:40.029Z,2.00
2019-03-01T17:32:44.078Z,1.90
2019-03-01T17:37:48.841Z,1.80
2019-03-01T17:42:56.616Z,1.70
2019-03-01T17:48:00.113Z,1.60
2019-03-01T17:53:06.167Z,1.60
2019-03-01T17:58:11.893Z,1.60
2019-03-01T18:03:16.832Z,1.50
2019-03-01T18:08:21.667Z,1.40
2019-03-01T18:13:26.493Z,1.40
2019-03-01T18:18:34.168Z,1.30
2019-03-01T18:23:39.090Z,1.30
2019-03-01T18:28:43.890Z,1.30
2019-03-01T18:33:48.700Z,1.20
2019-03-01T18:38:53.532Z,1.10
2019-03-01T18:43:58.354Z,1.10
2019-03-01T18:49:03.295Z,1.00
2019-03-01T18:54:08.524Z,0.90
2019-03-01T18:59:14.080Z,0.80
2019-03-01T19:04:29.350Z,0.80
2019-03-01T19:09:25.333Z,0.70
2019-03-01T19:14:30.170Z,0.70
2019-03-01T19:19:34.991Z,0.60
2019-03-01T19:24:43.072Z,0.60
2019-03-01T19:29:46.272Z,0.50
2019-03-01T19:34:52.775Z,0.50
2019-03-01T19:39:58.047Z,0.40
2019-03-01T19:45:04.678Z,0.30
2019-03-01T19:50:21.840Z,0.20
2019-03-01T19:55:27.150Z,0.10
2019-03-01T20:00:35.525Z,0.00
2019-03-01T20:05:41.551Z,-0.10
2019-03-01T20:10:47.614Z,-0.20
2019-03-01T20:15:52.891Z,-0.20
2019-03-01T20:20:57.824Z,-0.30
2019-03-01T20:26:02.661Z,-0.30
2019-03-01T20:31:07.497Z,-0.40
2019-03-01T20:36:13.886Z,-0.50
2019-03-01T20:41:18.645Z,-0.50
2019-03-01T20:46:24.472Z,-0.60
2019-03-01T20:51:30.030Z,-0.70
2019-03-01T20:56:34.824Z,-0.70
2019-03-01T21:01:39.705Z,-0.70
2019-03-01T21:06:44.497Z,-0.80
2019-03-01T21:11:51.229Z,-0.80
2019-03-01T21:16:56.256Z,-0.90
2019-03-01T21:22:01.607Z,-0.90
2019-03-01T21:27:07.713Z,-0.90
2019-03-01T21:32:14.662Z,-1.00
2019-03-01T21:37:18.997Z,-1.00
2019-03-01T21:42:23.697Z,-1.10
2019-03-01T21:47:28.561Z,-1.10
2019-03-01T21:52:33.728Z,-1.20
2019-03-01T21:57:38.948Z,-1.30
2019-03-01T22:02:43.808Z,-1.40
2019-03-01T22:07:50.306Z,-1.40
2019-03-01T22:12:56.940Z,-1.40
2019-03-01T22:18:01.661Z,-1.50
2019-03-01T22:23:09.775Z,-1.60
2019-03-01T22:28:12.952Z,-1.60
2019-03-01T22:33:20.835Z,-1.60
2019-03-01T22:38:24.093Z,-1.70
2019-03-01T22:43:28.869Z,-1.70
2019-03-01T22:48:33.667Z,-1.80
2019-03-01T22:53:41.759Z,-1.80
2019-03-01T22:58:45.705Z,-1.90
2019-03-01T23:03:51.457Z,-1.90
2019-03-01T23:08:57.058Z,-2.00
2019-03-01T23:14:01.848Z,-2.00
2019-03-01T23:19:07.094Z,-2.10
2019-03-01T23:24:11.857Z,-2.10
2019-03-01T23:29:18.788Z,-2.10
2019-03-01T23:34:23.745Z,-2.20
2019-03-01T23:39:28.616Z,-2.20
2019-03-01T23:44:33.883Z,-2.30
2019-03-01T23:49:38.736Z,-2.30
2019-03-01T23:54:44.257Z,-2.40
2019-03-01T23:59:50.340Z,-2.40
